»·PEaware :: N9915H KWHP-KCRQ

N9915H :: KWHP-KCRQ

FLIGHT INFORMATION

Flight Status: Arrived
Operator: Privately registered:
United States
More flights under this callsign
Pilot: Charlton B. (28558)
Aircraft: BEECH AIRCRAFT BONANZA
(BE36)
More flights by this aircraft type
Origin: KWHP Whiteman
United States
Destination: KCRQ McClellan-Palomar
United States
More flights between these airports :: More routes between these airports
Route: +V186 ROBNN V458 OCN
File this flight plan on PilotEdge
Remarks: TEC BURP36
Altitude:
(Current/Filed)
7,000ft
Speed:
(Current/Filed)
140kts
Departed: 07-May-20 03:14 PM
Arrived: 07-May-20 04:20 PM
Distance/Time
Traveled:
88nm/1:06
Distance/Time
To Go:
Arrived

Flight Plot

Page will automatically refresh every two minutes.


Map Options




Map Legend


Flown Route
Filed Route
Departure Airport
Arrival Airport
Navaid (VOR, NDB)
Fix

Horizontal Profiles

Position Reports

Time Latitude Longitude Heading Altitude Ground
Speed
07-May-20 14:48 34.260365 -118.413367 319 997ft 0kts
07-May-20 14:49 34.260365 -118.413367 319 997ft 0kts
07-May-20 14:50 34.260365 -118.413367 319 997ft 0kts
07-May-20 14:51 34.260365 -118.413367 319 997ft 0kts
07-May-20 14:52 34.260365 -118.413367 319 997ft 0kts
07-May-20 14:53 34.260365 -118.413367 319 997ft 0kts
07-May-20 14:54 34.260365 -118.413367 319 997ft 0kts
07-May-20 14:55 34.260365 -118.413367 319 997ft 0kts
07-May-20 14:56 34.260365 -118.413367 319 997ft 0kts
07-May-20 14:57 34.260365 -118.413367 319 997ft 0kts
07-May-20 14:57 34.260365 -118.413367 319 997ft 0kts
07-May-20 14:59 34.260365 -118.413367 319 997ft 0kts
07-May-20 15:00 34.260365 -118.413367 319 997ft 0kts
07-May-20 15:00 34.260365 -118.413367 319 997ft 0kts
07-May-20 15:02 34.260365 -118.413367 319 997ft 0kts
07-May-20 15:03 34.260365 -118.413367 319 997ft 0kts
07-May-20 15:03 34.260318 -118.413609 227 996ft 0kts
07-May-20 15:04 34.260318 -118.413609 227 996ft 0kts
07-May-20 15:06 34.259385 -118.412868 140 991ft 13kts
07-May-20 15:06 34.256782 -118.409900 188 975ft 0kts
07-May-20 15:07 34.256782 -118.409900 188 975ft 0kts
07-May-20 15:08 34.256782 -118.409900 188 975ft 0kts
07-May-20 15:09 34.255588 -118.408867 182 970ft 0kts
07-May-20 15:10 34.255588 -118.408867 182 970ft 0kts
07-May-20 15:11 34.255588 -118.408867 182 970ft 0kts
07-May-20 15:12 34.255570 -118.408868 181 970ft 3kts
07-May-20 15:13 34.264492 -118.418284 325 1259ft 96kts
07-May-20 15:14 34.269951 -118.451636 271 2607ft 108kts
07-May-20 15:15 34.271137 -118.488281 272 3917ft 110kts
07-May-20 15:16 34.281329 -118.519717 341 5123ft 109kts
07-May-20 15:17 34.278308 -118.543956 173 6222ft 109kts
07-May-20 15:18 34.254522 -118.522163 141 7132ft 123kts
07-May-20 15:19 34.222456 -118.491173 118 7053ft 163kts
07-May-20 15:20 34.206437 -118.441121 106 7091ft 158kts
07-May-20 15:21 34.192256 -118.390353 109 7087ft 159kts
07-May-20 15:22 34.177278 -118.340408 110 7085ft 160kts
07-May-20 15:23 34.161994 -118.290082 110 7084ft 160kts
07-May-20 15:24 34.146184 -118.239505 111 7080ft 160kts
07-May-20 15:25 34.130052 -118.188767 111 7038ft 161kts
07-May-20 15:26 34.113954 -118.138235 111 7039ft 160kts
07-May-20 15:27 34.097871 -118.087849 111 7039ft 160kts
07-May-20 15:28 34.081808 -118.037601 111 7039ft 161kts
07-May-20 15:29 34.065686 -117.987254 111 7039ft 161kts
07-May-20 15:30 34.049635 -117.937197 111 7077ft 159kts
07-May-20 15:31 34.033588 -117.887259 111 7087ft 160kts
07-May-20 15:32 34.017380 -117.836890 111 7086ft 161kts
07-May-20 15:33 34.001166 -117.786585 111 7085ft 161kts
07-May-20 15:34 33.984918 -117.736259 111 7085ft 161kts
07-May-20 15:35 33.968668 -117.686011 111 7085ft 161kts
07-May-20 15:36 33.952375 -117.635716 111 7085ft 161kts
07-May-20 15:37 33.936074 -117.585473 111 7085ft 161kts
07-May-20 15:38 33.919079 -117.535632 128 7046ft 163kts
07-May-20 15:39 33.884073 -117.502175 144 7054ft 163kts
07-May-20 15:40 33.847396 -117.470950 145 7078ft 161kts
07-May-20 15:41 33.810757 -117.440188 145 7083ft 161kts
07-May-20 15:42 33.773875 -117.409313 145 7085ft 161kts
07-May-20 15:43 33.737153 -117.378611 145 7085ft 161kts
07-May-20 15:44 33.700317 -117.347851 145 7085ft 161kts
07-May-20 15:45 33.663454 -117.317101 145 7086ft 161kts
07-May-20 15:46 33.626565 -117.286365 145 7085ft 161kts
07-May-20 15:47 33.589768 -117.255565 145 7086ft 161kts
07-May-20 15:48 33.552932 -117.224904 145 7086ft 161kts
07-May-20 15:49 33.516102 -117.194313 145 7085ft 161kts
07-May-20 15:50 33.479062 -117.164012 155 7070ft 162kts
07-May-20 15:51 33.435654 -117.153111 169 7327ft 154kts
07-May-20 15:52 33.398725 -117.137888 113 8284ft 133kts
07-May-20 15:53 33.390953 -117.095418 101 9115ft 134kts
07-May-20 15:54 33.385609 -117.045267 92 9089ft 155kts
07-May-20 15:55 33.384196 -116.991944 92 9117ft 168kts
07-May-20 15:56 33.382698 -116.934930 92 9153ft 172kts
07-May-20 15:57 33.381179 -116.876913 91 9119ft 176kts
07-May-20 15:58 33.379661 -116.818055 91 9108ft 176kts
07-May-20 15:59 33.378163 -116.759419 91 9101ft 176kts
07-May-20 16:00 33.376679 -116.700890 91 9097ft 176kts
07-May-20 16:01 33.375205 -116.642281 91 9105ft 175kts
07-May-20 16:02 33.373760 -116.584305 91 9120ft 176kts
07-May-20 16:03 33.352656 -116.548038 209 9081ft 162kts
07-May-20 16:04 33.328162 -116.590872 231 9158ft 155kts
07-May-20 16:05 33.302568 -116.632684 234 9165ft 158kts
07-May-20 16:06 33.282437 -116.680277 246 8733ft 170kts
07-May-20 16:07 33.262691 -116.731381 244 8001ft 164kts
07-May-20 16:08 33.242903 -116.780322 244 7987ft 161kts
07-May-20 16:09 33.221349 -116.832531 245 7213ft 188kts
07-May-20 16:10 33.197519 -116.888820 239 6292ft 176kts
07-May-20 16:11 33.182548 -116.941851 258 5564ft 169kts
07-May-20 16:12 33.173908 -116.995602 259 4257ft 151kts
07-May-20 16:13 33.166493 -117.042324 258 3234ft 142kts
07-May-20 16:14 33.159657 -117.085366 259 3230ft 145kts
07-May-20 16:15 33.151487 -117.136200 259 2995ft 171kts
07-May-20 16:16 33.142693 -117.190300 259 1690ft 146kts
07-May-20 16:17 33.136665 -117.228773 259 1151ft 107kts
07-May-20 16:18 33.131147 -117.261377 255 606ft 88kts
07-May-20 16:19 33.127837 -117.279582 222 335ft 0kts
07-May-20 16:20 33.127597 -117.279523 160 335ft 1kts
07-May-20 16:21 33.126428 -117.279086 317 335ft 0kts

Navigation Log

Ident Type
Flight plan parsing failed, navigation log unavailable